sensor_id;sensor_type;location;lat;lon;timestamp;P1;durP1;ratioP1;P2;durP2;ratioP2
29534;SDS011;16475;52.650;8.116;2023-02-28T00:00:31;30.45;;;2.75;;
29534;SDS011;16475;52.650;8.116;2023-02-28T00:02:56;1.80;;;1.80;;
29534;SDS011;16475;52.650;8.116;2023-02-28T00:05:23;3.73;;;2.53;;
29534;SDS011;16475;52.650;8.116;2023-02-28T00:07:49;2.25;;;2.17;;
29534;SDS011;16475;52.650;8.116;2023-02-28T00:10:16;4.43;;;3.05;;
29534;SDS011;16475;52.650;8.116;2023-02-28T00:12:48;1.83;;;1.73;;
29534;SDS011;16475;52.650;8.116;2023-02-28T00:15:14;3.47;;;3.17;;
29534;SDS011;16475;52.650;8.116;2023-02-28T00:17:39;3.03;;;2.13;;
29534;SDS011;16475;52.650;8.116;2023-02-28T00:20:05;8.40;;;2.40;;
29534;SDS011;16475;52.650;8.116;2023-02-28T00:22:33;3.45;;;3.10;;
29534;SDS011;16475;52.650;8.116;2023-02-28T00:24:58;1.73;;;1.63;;
29534;SDS011;16475;52.650;8.116;2023-02-28T00:27:23;3.23;;;2.93;;
29534;SDS011;16475;52.650;8.116;2023-02-28T00:29:49;1.57;;;1.47;;
29534;SDS011;16475;52.650;8.116;2023-02-28T00:32:14;2.40;;;2.30;;
29534;SDS011;16475;52.650;8.116;2023-02-28T00:34:39;1.93;;;1.83;;
29534;SDS011;16475;52.650;8.116;2023-02-28T00:37:05;2.03;;;1.83;;
29534;SDS011;16475;52.650;8.116;2023-02-28T00:39:36;2.78;;;2.05;;
29534;SDS011;16475;52.650;8.116;2023-02-28T00:42:02;7.05;;;3.90;;
29534;SDS011;16475;52.650;8.116;2023-02-28T00:44:28;2.20;;;1.80;;
29534;SDS011;16475;52.650;8.116;2023-02-28T00:46:53;1.90;;;1.80;;
29534;SDS011;16475;52.650;8.116;2023-02-28T00:49:19;3.10;;;2.87;;
29534;SDS011;16475;52.650;8.116;2023-02-28T00:51:45;2.47;;;2.38;;
29534;SDS011;16475;52.650;8.116;2023-02-28T00:54:10;2.10;;;2.00;;
29534;SDS011;16475;52.650;8.116;2023-02-28T00:56:36;1.50;;;1.47;;
29534;SDS011;16475;52.650;8.116;2023-02-28T00:59:01;4.53;;;3.03;;
29534;SDS011;16475;52.650;8.116;2023-02-28T01:01:26;1.03;;;1.03;;
29534;SDS011;16475;52.650;8.116;2023-02-28T01:03:52;1.73;;;1.63;;
29534;SDS011;16475;52.650;8.116;2023-02-28T01:06:17;3.43;;;2.57;;
29534;SDS011;16475;52.650;8.116;2023-02-28T01:08:42;2.50;;;2.30;;
29534;SDS011;16475;52.650;8.116;2023-02-28T01:11:08;4.17;;;2.80;;
29534;SDS011;16475;52.650;8.116;2023-02-28T01:13:35;2.05;;;1.70;;
29534;SDS011;16475;52.650;8.116;2023-02-28T01:16:00;34.67;;;3.17;;
29534;SDS011;16475;52.650;8.116;2023-02-28T01:18:26;0.93;;;0.93;;
29534;SDS011;16475;52.650;8.116;2023-02-28T01:20:51;2.67;;;2.37;;
29534;SDS011;16475;52.650;8.116;2023-02-28T01:23:18;2.30;;;1.43;;
29534;SDS011;16475;52.650;8.116;2023-02-28T01:25:45;15.55;;;3.28;;
29534;SDS011;16475;52.650;8.116;2023-02-28T01:28:10;5.60;;;2.60;;
29534;SDS011;16475;52.650;8.116;2023-02-28T01:30:35;8.73;;;2.40;;
29534;SDS011;16475;52.650;8.116;2023-02-28T01:33:01;2.13;;;2.03;;
29534;SDS011;16475;52.650;8.116;2023-02-28T01:35:26;3.87;;;3.17;;
29534;SDS011;16475;52.650;8.116;2023-02-28T01:37:51;3.33;;;2.60;;
29534;SDS011;16475;52.650;8.116;2023-02-28T01:40:16;3.80;;;3.00;;
29534;SDS011;16475;52.650;8.116;2023-02-28T01:42:42;1.43;;;1.43;;
29534;SDS011;16475;52.650;8.116;2023-02-28T01:45:26;8.13;;;3.33;;
29534;SDS011;16475;52.650;8.116;2023-02-28T01:47:55;2.05;;;1.95;;
29534;SDS011;16475;52.650;8.116;2023-02-28T01:50:27;6.13;;;3.83;;
29534;SDS011;16475;52.650;8.116;2023-02-28T01:52:54;2.50;;;2.30;;
29534;SDS011;16475;52.650;8.116;2023-02-28T01:55:22;2.55;;;2.45;;
29534;SDS011;16475;52.650;8.116;2023-02-28T01:57:50;1.15;;;1.15;;
29534;SDS011;16475;52.650;8.116;2023-02-28T02:00:18;2.42;;;2.33;;
29534;SDS011;16475;52.650;8.116;2023-02-28T02:02:46;12.18;;;2.40;;
29534;SDS011;16475;52.650;8.116;2023-02-28T02:05:18;1.73;;;1.73;;
29534;SDS011;16475;52.650;8.116;2023-02-28T02:07:46;3.05;;;1.33;;
29534;SDS011;16475;52.650;8.116;2023-02-28T02:18:00;4.33;;;3.13;;
29534;SDS011;16475;52.650;8.116;2023-02-28T02:31:34;2.58;;;2.33;;
29534;SDS011;16475;52.650;8.116;2023-02-28T02:37:03;2.28;;;1.75;;
29534;SDS011;16475;52.650;8.116;2023-02-28T02:42:21;2.50;;;2.30;;
29534;SDS011;16475;52.650;8.116;2023-02-28T02:44:52;1.73;;;1.73;;
29534;SDS011;16475;52.650;8.116;2023-02-28T02:47:23;3.17;;;2.95;;
29534;SDS011;16475;52.650;8.116;2023-02-28T02:49:50;4.72;;;2.60;;
29534;SDS011;16475;52.650;8.116;2023-02-28T02:52:18;2.63;;;2.42;;
29534;SDS011;16475;52.650;8.116;2023-02-28T02:54:47;3.90;;;3.35;;
29534;SDS011;16475;52.650;8.116;2023-02-28T02:57:15;2.60;;;2.50;;
29534;SDS011;16475;52.650;8.116;2023-02-28T02:59:46;2.10;;;2.00;;
29534;SDS011;16475;52.650;8.116;2023-02-28T03:02:14;1.73;;;1.63;;
29534;SDS011;16475;52.650;8.116;2023-02-28T03:04:48;4.67;;;1.70;;
29534;SDS011;16475;52.650;8.116;2023-02-28T03:07:19;2.00;;;1.90;;
29534;SDS011;16475;52.650;8.116;2023-02-28T03:09:51;1.50;;;1.50;;
29534;SDS011;16475;52.650;8.116;2023-02-28T03:12:17;2.92;;;2.72;;
29534;SDS011;16475;52.650;8.116;2023-02-28T03:22:36;6.13;;;4.20;;
29534;SDS011;16475;52.650;8.116;2023-02-28T03:25:11;1.65;;;1.55;;
29534;SDS011;16475;52.650;8.116;2023-02-28T03:27:42;1.50;;;1.50;;
29534;SDS011;16475;52.650;8.116;2023-02-28T03:30:29;3.50;;;3.30;;
29534;SDS011;16475;52.650;8.116;2023-02-28T03:33:11;2.42;;;2.22;;
29534;SDS011;16475;52.650;8.116;2023-02-28T03:35:48;2.95;;;2.75;;
29534;SDS011;16475;52.650;8.116;2023-02-28T03:38:40;2.67;;;2.20;;
29534;SDS011;16475;52.650;8.116;2023-02-28T03:41:13;2.97;;;2.75;;
29534;SDS011;16475;52.650;8.116;2023-02-28T03:43:42;1.38;;;1.38;;
29534;SDS011;16475;52.650;8.116;2023-02-28T03:46:10;4.20;;;2.25;;
29534;SDS011;16475;52.650;8.116;2023-02-28T03:48:43;4.03;;;3.72;;
29534;SDS011;16475;52.650;8.116;2023-02-28T03:51:10;3.00;;;2.85;;
29534;SDS011;16475;52.650;8.116;2023-02-28T03:53:42;8.77;;;2.10;;
29534;SDS011;16475;52.650;8.116;2023-02-28T03:58:45;1.42;;;1.42;;
29534;SDS011;16475;52.650;8.116;2023-02-28T04:01:56;1.70;;;1.63;;
29534;SDS011;16475;52.650;8.116;2023-02-28T04:04:07;1.25;;;1.15;;
29534;SDS011;16475;52.650;8.116;2023-02-28T04:06:33;2.22;;;2.22;;
29534;SDS011;16475;52.650;8.116;2023-02-28T04:08:59;1.98;;;1.85;;
29534;SDS011;16475;52.650;8.116;2023-02-28T04:14:03;4.20;;;2.95;;
29534;SDS011;16475;52.650;8.116;2023-02-28T04:16:30;5.95;;;2.90;;
29534;SDS011;16475;52.650;8.116;2023-02-28T04:18:56;2.75;;;2.55;;
29534;SDS011;16475;52.650;8.116;2023-02-28T04:21:27;2.17;;;1.98;;
29534;SDS011;16475;52.650;8.116;2023-02-28T04:23:56;2.10;;;2.00;;
29534;SDS011;16475;52.650;8.116;2023-02-28T04:26:25;2.42;;;2.33;;
29534;SDS011;16475;52.650;8.116;2023-02-28T04:28:52;1.70;;;1.70;;
29534;SDS011;16475;52.650;8.116;2023-02-28T04:31:18;2.07;;;1.90;;
29534;SDS011;16475;52.650;8.116;2023-02-28T04:33:43;4.83;;;2.40;;
29534;SDS011;16475;52.650;8.116;2023-02-28T04:36:08;1.37;;;1.37;;
29534;SDS011;16475;52.650;8.116;2023-02-28T04:38:36;1.30;;;1.23;;
29534;SDS011;16475;52.650;8.116;2023-02-28T04:41:02;3.38;;;1.65;;
29534;SDS011;16475;52.650;8.116;2023-02-28T04:43:28;1.90;;;1.80;;
29534;SDS011;16475;52.650;8.116;2023-02-28T04:45:55;1.45;;;1.38;;
29534;SDS011;16475;52.650;8.116;2023-02-28T04:48:22;2.85;;;2.55;;
29534;SDS011;16475;52.650;8.116;2023-02-28T04:50:48;1.02;;;1.00;;
29534;SDS011;16475;52.650;8.116;2023-02-28T04:53:14;3.27;;;2.03;;
29534;SDS011;16475;52.650;8.116;2023-02-28T04:55:39;1.33;;;1.33;;
29534;SDS011;16475;52.650;8.116;2023-02-28T04:58:05;2.13;;;1.98;;
29534;SDS011;16475;52.650;8.116;2023-02-28T05:00:30;1.37;;;1.37;;
29534;SDS011;16475;52.650;8.116;2023-02-28T05:02:56;3.03;;;2.67;;
29534;SDS011;16475;52.650;8.116;2023-02-28T05:05:21;1.80;;;1.70;;
29534;SDS011;16475;52.650;8.116;2023-02-28T05:07:46;3.50;;;3.20;;
29534;SDS011;16475;52.650;8.116;2023-02-28T05:10:12;0.90;;;0.90;;
29534;SDS011;16475;52.650;8.116;2023-02-28T05:12:37;3.10;;;2.60;;
29534;SDS011;16475;52.650;8.116;2023-02-28T05:15:03;1.02;;;1.02;;
29534;SDS011;16475;52.650;8.116;2023-02-28T05:17:29;2.65;;;1.80;;
29534;SDS011;16475;52.650;8.116;2023-02-28T05:19:55;2.50;;;1.87;;
29534;SDS011;16475;52.650;8.116;2023-02-28T05:22:20;3.13;;;2.23;;
29534;SDS011;16475;52.650;8.116;2023-02-28T05:24:45;1.93;;;1.83;;
29534;SDS011;16475;52.650;8.116;2023-02-28T05:27:11;2.03;;;1.93;;
29534;SDS011;16475;52.650;8.116;2023-02-28T05:29:36;2.13;;;2.03;;
29534;SDS011;16475;52.650;8.116;2023-02-28T05:32:07;3.85;;;2.50;;
29534;SDS011;16475;52.650;8.116;2023-02-28T05:34:33;2.47;;;2.22;;
29534;SDS011;16475;52.650;8.116;2023-02-28T05:36:59;1.67;;;1.60;;
29534;SDS011;16475;52.650;8.116;2023-02-28T05:39:24;2.73;;;1.63;;
29534;SDS011;16475;52.650;8.116;2023-02-28T05:41:50;1.93;;;1.87;;
29534;SDS011;16475;52.650;8.116;2023-02-28T05:44:15;2.90;;;2.70;;
29534;SDS011;16475;52.650;8.116;2023-02-28T05:46:40;1.20;;;1.20;;
29534;SDS011;16475;52.650;8.116;2023-02-28T05:49:05;2.37;;;2.27;;
29534;SDS011;16475;52.650;8.116;2023-02-28T05:51:31;1.50;;;1.40;;
29534;SDS011;16475;52.650;8.116;2023-02-28T05:54:00;1.00;;;1.00;;
29534;SDS011;16475;52.650;8.116;2023-02-28T05:56:26;3.83;;;3.28;;
29534;SDS011;16475;52.650;8.116;2023-02-28T05:58:51;5.10;;;1.83;;
29534;SDS011;16475;52.650;8.116;2023-02-28T06:01:21;1.80;;;1.70;;
29534;SDS011;16475;52.650;8.116;2023-02-28T06:03:48;12.27;;;1.92;;
29534;SDS011;16475;52.650;8.116;2023-02-28T06:06:13;1.30;;;1.30;;
29534;SDS011;16475;52.650;8.116;2023-02-28T06:08:38;2.20;;;1.73;;
29534;SDS011;16475;52.650;8.116;2023-02-28T06:11:04;1.50;;;1.40;;
29534;SDS011;16475;52.650;8.116;2023-02-28T06:13:29;1.57;;;1.47;;
29534;SDS011;16475;52.650;8.116;2023-02-28T06:15:54;3.40;;;1.63;;
29534;SDS011;16475;52.650;8.116;2023-02-28T06:18:20;3.50;;;1.43;;
29534;SDS011;16475;52.650;8.116;2023-02-28T06:20:51;1.97;;;1.77;;
29534;SDS011;16475;52.650;8.116;2023-02-28T06:23:19;3.90;;;2.78;;
29534;SDS011;16475;52.650;8.116;2023-02-28T06:25:45;1.20;;;1.20;;
29534;SDS011;16475;52.650;8.116;2023-02-28T06:28:10;1.67;;;1.57;;
29534;SDS011;16475;52.650;8.116;2023-02-28T06:30:37;3.57;;;2.63;;
29534;SDS011;16475;52.650;8.116;2023-02-28T06:33:02;2.58;;;1.67;;
29534;SDS011;16475;52.650;8.116;2023-02-28T06:35:28;1.47;;;1.47;;
29534;SDS011;16475;52.650;8.116;2023-02-28T06:37:54;1.52;;;1.52;;
29534;SDS011;16475;52.650;8.116;2023-02-28T06:40:19;1.77;;;1.77;;
29534;SDS011;16475;52.650;8.116;2023-02-28T06:42:45;1.80;;;1.77;;
29534;SDS011;16475;52.650;8.116;2023-02-28T06:45:10;1.40;;;1.40;;
29534;SDS011;16475;52.650;8.116;2023-02-28T06:47:40;1.65;;;1.55;;
29534;SDS011;16475;52.650;8.116;2023-02-28T06:50:07;1.67;;;1.67;;
29534;SDS011;16475;52.650;8.116;2023-02-28T06:52:34;1.65;;;1.58;;
29534;SDS011;16475;52.650;8.116;2023-02-28T06:55:02;1.90;;;1.90;;
29534;SDS011;16475;52.650;8.116;2023-02-28T06:57:29;1.42;;;1.42;;
29534;SDS011;16475;52.650;8.116;2023-02-28T06:59:56;1.42;;;1.42;;
29534;SDS011;16475;52.650;8.116;2023-02-28T07:02:22;2.60;;;1.75;;
29534;SDS011;16475;52.650;8.116;2023-02-28T07:04:48;30.43;;;2.10;;
29534;SDS011;16475;52.650;8.116;2023-02-28T07:07:13;1.90;;;1.20;;
29534;SDS011;16475;52.650;8.116;2023-02-28T07:09:38;1.40;;;1.40;;
29534;SDS011;16475;52.650;8.116;2023-02-28T07:12:04;1.43;;;1.43;;
29534;SDS011;16475;52.650;8.116;2023-02-28T07:14:29;1.57;;;1.47;;
29534;SDS011;16475;52.650;8.116;2023-02-28T07:16:55;2.87;;;1.90;;
29534;SDS011;16475;52.650;8.116;2023-02-28T07:19:20;2.10;;;1.90;;
29534;SDS011;16475;52.650;8.116;2023-02-28T07:21:45;4.70;;;1.77;;
29534;SDS011;16475;52.650;8.116;2023-02-28T07:24:11;1.90;;;1.77;;
29534;SDS011;16475;52.650;8.116;2023-02-28T07:26:36;2.13;;;1.93;;
29534;SDS011;16475;52.650;8.116;2023-02-28T07:29:01;1.10;;;1.10;;
29534;SDS011;16475;52.650;8.116;2023-02-28T07:31:27;1.67;;;1.23;;
29534;SDS011;16475;52.650;8.116;2023-02-28T07:33:52;1.63;;;1.40;;
29534;SDS011;16475;52.650;8.116;2023-02-28T07:36:18;2.35;;;2.13;;
29534;SDS011;16475;52.650;8.116;2023-02-28T07:38:44;2.77;;;2.57;;
29534;SDS011;16475;52.650;8.116;2023-02-28T07:41:12;1.27;;;1.27;;
29534;SDS011;16475;52.650;8.116;2023-02-28T07:43:38;5.63;;;3.93;;
29534;SDS011;16475;52.650;8.116;2023-02-28T07:46:04;3.60;;;3.30;;
29534;SDS011;16475;52.650;8.116;2023-02-28T07:48:30;2.58;;;2.20;;
29534;SDS011;16475;52.650;8.116;2023-02-28T07:50:56;2.37;;;2.17;;
29534;SDS011;16475;52.650;8.116;2023-02-28T07:53:22;1.23;;;1.23;;
29534;SDS011;16475;52.650;8.116;2023-02-28T07:55:47;6.63;;;1.80;;
29534;SDS011;16475;52.650;8.116;2023-02-28T07:58:13;1.83;;;1.73;;
29534;SDS011;16475;52.650;8.116;2023-02-28T08:00:38;3.00;;;2.70;;
29534;SDS011;16475;52.650;8.116;2023-02-28T08:03:03;2.47;;;2.13;;
29534;SDS011;16475;52.650;8.116;2023-02-28T08:05:29;1.87;;;1.87;;
29534;SDS011;16475;52.650;8.116;2023-02-28T08:07:55;4.43;;;2.08;;
29534;SDS011;16475;52.650;8.116;2023-02-28T08:10:20;3.90;;;2.60;;
29534;SDS011;16475;52.650;8.116;2023-02-28T08:12:45;1.30;;;1.30;;
29534;SDS011;16475;52.650;8.116;2023-02-28T08:15:11;2.07;;;1.97;;
29534;SDS011;16475;52.650;8.116;2023-02-28T08:17:36;3.20;;;2.90;;
29534;SDS011;16475;52.650;8.116;2023-02-28T08:20:01;4.90;;;2.03;;
29534;SDS011;16475;52.650;8.116;2023-02-28T08:22:27;2.70;;;2.20;;
29534;SDS011;16475;52.650;8.116;2023-02-28T08:24:52;1.93;;;1.83;;
29534;SDS011;16475;52.650;8.116;2023-02-28T08:27:17;2.10;;;1.87;;
29534;SDS011;16475;52.650;8.116;2023-02-28T08:29:43;11.10;;;4.20;;
29534;SDS011;16475;52.650;8.116;2023-02-28T08:32:08;3.50;;;2.03;;
29534;SDS011;16475;52.650;8.116;2023-02-28T08:34:33;2.40;;;2.13;;
29534;SDS011;16475;52.650;8.116;2023-02-28T08:36:59;1.67;;;1.57;;
29534;SDS011;16475;52.650;8.116;2023-02-28T08:39:24;12.80;;;3.20;;
29534;SDS011;16475;52.650;8.116;2023-02-28T08:41:49;2.67;;;2.57;;
29534;SDS011;16475;52.650;8.116;2023-02-28T08:44:15;1.50;;;1.50;;
29534;SDS011;16475;52.650;8.116;2023-02-28T08:46:40;1.60;;;1.60;;
29534;SDS011;16475;52.650;8.116;2023-02-28T08:49:05;2.70;;;1.70;;
29534;SDS011;16475;52.650;8.116;2023-02-28T08:51:31;1.20;;;1.20;;
29534;SDS011;16475;52.650;8.116;2023-02-28T08:53:58;2.20;;;1.67;;
29534;SDS011;16475;52.650;8.116;2023-02-28T08:56:25;1.10;;;1.10;;
29534;SDS011;16475;52.650;8.116;2023-02-28T08:58:50;1.55;;;1.55;;
29534;SDS011;16475;52.650;8.116;2023-02-28T09:01:17;1.73;;;1.40;;
29534;SDS011;16475;52.650;8.116;2023-02-28T09:03:44;1.55;;;1.55;;
29534;SDS011;16475;52.650;8.116;2023-02-28T09:06:11;2.15;;;1.23;;
29534;SDS011;16475;52.650;8.116;2023-02-28T09:08:36;1.23;;;1.23;;
29534;SDS011;16475;52.650;8.116;2023-02-28T09:38:03;0.80;;;0.80;;
29534;SDS011;16475;52.650;8.116;2023-02-28T09:40:29;0.70;;;0.70;;
29534;SDS011;16475;52.650;8.116;2023-02-28T09:42:56;2.72;;;1.05;;
29534;SDS011;16475;52.650;8.116;2023-02-28T09:45:27;0.98;;;0.98;;
29534;SDS011;16475;52.650;8.116;2023-02-28T09:47:58;1.08;;;1.08;;
29534;SDS011;16475;52.650;8.116;2023-02-28T09:50:33;1.23;;;1.23;;
29534;SDS011;16475;52.650;8.116;2023-02-28T09:53:13;0.80;;;0.80;;
29534;SDS011;16475;52.650;8.116;2023-02-28T09:55:47;0.95;;;0.95;;
29534;SDS011;16475;52.650;8.116;2023-02-28T09:58:35;0.85;;;0.85;;
29534;SDS011;16475;52.650;8.116;2023-02-28T10:01:10;0.80;;;0.80;;
29534;SDS011;16475;52.650;8.116;2023-02-28T10:03:46;0.80;;;0.80;;
29534;SDS011;16475;52.650;8.116;2023-02-28T10:06:19;0.85;;;0.85;;
29534;SDS011;16475;52.650;8.116;2023-02-28T10:08:50;0.95;;;0.95;;
29534;SDS011;16475;52.650;8.116;2023-02-28T10:11:21;0.88;;;0.88;;
29534;SDS011;16475;52.650;8.116;2023-02-28T10:13:50;0.80;;;0.80;;
29534;SDS011;16475;52.650;8.116;2023-02-28T10:16:48;0.70;;;0.70;;
29534;SDS011;16475;52.650;8.116;2023-02-28T10:19:39;0.80;;;0.80;;
29534;SDS011;16475;52.650;8.116;2023-02-28T10:25:23;0.93;;;0.93;;
29534;SDS011;16475;52.650;8.116;2023-02-28T10:27:52;0.77;;;0.77;;
29534;SDS011;16475;52.650;8.116;2023-02-28T10:30:19;1.13;;;1.13;;
29534;SDS011;16475;52.650;8.116;2023-02-28T10:32:47;6.60;;;1.87;;
29534;SDS011;16475;52.650;8.116;2023-02-28T10:37:41;1.20;;;1.10;;
29534;SDS011;16475;52.650;8.116;2023-02-28T10:40:24;0.90;;;0.90;;
29534;SDS011;16475;52.650;8.116;2023-02-28T10:43:11;0.70;;;0.70;;
29534;SDS011;16475;52.650;8.116;2023-02-28T10:50:59;0.70;;;0.70;;
29534;SDS011;16475;52.650;8.116;2023-02-28T10:53:29;1.00;;;1.00;;
29534;SDS011;16475;52.650;8.116;2023-02-28T10:58:42;0.80;;;0.80;;
29534;SDS011;16475;52.650;8.116;2023-02-28T11:01:16;0.80;;;0.80;;
29534;SDS011;16475;52.650;8.116;2023-02-28T11:03:44;1.15;;;1.00;;
29534;SDS011;16475;52.650;8.116;2023-02-28T11:06:15;0.80;;;0.80;;
29534;SDS011;16475;52.650;8.116;2023-02-28T11:08:44;1.02;;;1.02;;
29534;SDS011;16475;52.650;8.116;2023-02-28T11:11:14;0.82;;;0.82;;
29534;SDS011;16475;52.650;8.116;2023-02-28T11:13:42;0.85;;;0.85;;
29534;SDS011;16475;52.650;8.116;2023-02-28T11:16:09;5.85;;;1.10;;
29534;SDS011;16475;52.650;8.116;2023-02-28T11:21:04;1.17;;;1.05;;
29534;SDS011;16475;52.650;8.116;2023-02-28T11:23:30;15.43;;;1.93;;
29534;SDS011;16475;52.650;8.116;2023-02-28T11:25:59;1.17;;;1.08;;
29534;SDS011;16475;52.650;8.116;2023-02-28T11:28:30;0.82;;;0.82;;
29534;SDS011;16475;52.650;8.116;2023-02-28T11:36:10;0.97;;;0.97;;
29534;SDS011;16475;52.650;8.116;2023-02-28T11:38:44;2.25;;;1.15;;
29534;SDS011;16475;52.650;8.116;2023-02-28T11:41:21;1.10;;;1.10;;
29534;SDS011;16475;52.650;8.116;2023-02-28T11:46:49;1.65;;;0.90;;
29534;SDS011;16475;52.650;8.116;2023-02-28T11:57:35;1.15;;;1.13;;
29534;SDS011;16475;52.650;8.116;2023-02-28T12:05:50;2.57;;;1.40;;
29534;SDS011;16475;52.650;8.116;2023-02-28T12:11:16;2.30;;;1.70;;
29534;SDS011;16475;52.650;8.116;2023-02-28T12:17:11;1.43;;;1.27;;
29534;SDS011;16475;52.650;8.116;2023-02-28T12:19:20;1.10;;;1.10;;
29534;SDS011;16475;52.650;8.116;2023-02-28T12:27:32;1.40;;;1.30;;
29534;SDS011;16475;52.650;8.116;2023-02-28T12:30:04;1.47;;;1.30;;
29534;SDS011;16475;52.650;8.116;2023-02-28T12:32:37;1.10;;;1.10;;
29534;SDS011;16475;52.650;8.116;2023-02-28T12:35:11;2.67;;;1.60;;
29534;SDS011;16475;52.650;8.116;2023-02-28T12:40:41;1.37;;;1.27;;
29534;SDS011;16475;52.650;8.116;2023-02-28T12:43:09;1.20;;;1.20;;
29534;SDS011;16475;52.650;8.116;2023-02-28T12:48:08;0.97;;;0.97;;
29534;SDS011;16475;52.650;8.116;2023-02-28T12:50:35;1.80;;;1.30;;
29534;SDS011;16475;52.650;8.116;2023-02-28T12:58:20;1.10;;;1.10;;
29534;SDS011;16475;52.650;8.116;2023-02-28T13:06:10;1.10;;;1.10;;
29534;SDS011;16475;52.650;8.116;2023-02-28T13:09:01;1.27;;;1.20;;
29534;SDS011;16475;52.650;8.116;2023-02-28T13:17:10;1.17;;;1.10;;
29534;SDS011;16475;52.650;8.116;2023-02-28T13:19:38;1.20;;;1.20;;
29534;SDS011;16475;52.650;8.116;2023-02-28T13:22:04;1.20;;;1.20;;
29534;SDS011;16475;52.650;8.116;2023-02-28T13:29:35;1.73;;;1.20;;
29534;SDS011;16475;52.650;8.116;2023-02-28T13:34:41;0.90;;;0.90;;
29534;SDS011;16475;52.650;8.116;2023-02-28T13:39:51;1.30;;;1.30;;
29534;SDS011;16475;52.650;8.116;2023-02-28T13:47:51;1.70;;;1.37;;
29534;SDS011;16475;52.650;8.116;2023-02-28T13:55:42;3.17;;;1.40;;
29534;SDS011;16475;52.650;8.116;2023-02-28T13:58:20;1.23;;;1.20;;
29534;SDS011;16475;52.650;8.116;2023-02-28T14:06:33;4.30;;;0.90;;
29534;SDS011;16475;52.650;8.116;2023-02-28T14:09:00;1.63;;;1.30;;
29534;SDS011;16475;52.650;8.116;2023-02-28T14:11:30;1.20;;;1.20;;
29534;SDS011;16475;52.650;8.116;2023-02-28T14:14:04;1.00;;;1.00;;
29534;SDS011;16475;52.650;8.116;2023-02-28T14:16:37;1.73;;;1.33;;
29534;SDS011;16475;52.650;8.116;2023-02-28T14:19:09;2.30;;;1.40;;
29534;SDS011;16475;52.650;8.116;2023-02-28T14:21:38;3.33;;;1.50;;
29534;SDS011;16475;52.650;8.116;2023-02-28T14:38:32;1.17;;;1.10;;
29534;SDS011;16475;52.650;8.116;2023-02-28T14:41:03;5.50;;;1.27;;
29534;SDS011;16475;52.650;8.116;2023-02-28T14:43:31;2.00;;;1.33;;
29534;SDS011;16475;52.650;8.116;2023-02-28T14:45:58;1.40;;;1.30;;
29534;SDS011;16475;52.650;8.116;2023-02-28T14:48:25;1.50;;;1.40;;
29534;SDS011;16475;52.650;8.116;2023-02-28T14:50:52;1.53;;;1.43;;
29534;SDS011;16475;52.650;8.116;2023-02-28T14:53:23;1.50;;;1.40;;
29534;SDS011;16475;52.650;8.116;2023-02-28T14:55:51;4.13;;;1.67;;
29534;SDS011;16475;52.650;8.116;2023-02-28T14:58:25;2.97;;;1.50;;
29534;SDS011;16475;52.650;8.116;2023-02-28T15:00:52;6.20;;;1.50;;
29534;SDS011;16475;52.650;8.116;2023-02-28T15:03:24;3.83;;;1.50;;
29534;SDS011;16475;52.650;8.116;2023-02-28T15:05:56;2.10;;;1.63;;
29534;SDS011;16475;52.650;8.116;2023-02-28T15:08:23;1.30;;;1.30;;
29534;SDS011;16475;52.650;8.116;2023-02-28T15:10:56;1.33;;;1.27;;
29534;SDS011;16475;52.650;8.116;2023-02-28T15:13:25;1.23;;;1.10;;
29534;SDS011;16475;52.650;8.116;2023-02-28T15:16:02;1.27;;;1.17;;
29534;SDS011;16475;52.650;8.116;2023-02-28T15:21:18;1.93;;;1.80;;
29534;SDS011;16475;52.650;8.116;2023-02-28T15:23:48;5.73;;;2.90;;
29534;SDS011;16475;52.650;8.116;2023-02-28T15:26:16;1.70;;;1.60;;
29534;SDS011;16475;52.650;8.116;2023-02-28T15:28:44;1.70;;;1.53;;
29534;SDS011;16475;52.650;8.116;2023-02-28T15:31:29;2.10;;;1.27;;
29534;SDS011;16475;52.650;8.116;2023-02-28T15:33:58;1.30;;;1.30;;
29534;SDS011;16475;52.650;8.116;2023-02-28T15:36:29;1.73;;;1.60;;
29534;SDS011;16475;52.650;8.116;2023-02-28T15:38:56;2.53;;;1.30;;
29534;SDS011;16475;52.650;8.116;2023-02-28T15:49:26;1.90;;;1.80;;
29534;SDS011;16475;52.650;8.116;2023-02-28T15:51:53;1.70;;;1.60;;
29534;SDS011;16475;52.650;8.116;2023-02-28T15:54:26;1.60;;;1.50;;
29534;SDS011;16475;52.650;8.116;2023-02-28T15:56:57;1.90;;;1.67;;
29534;SDS011;16475;52.650;8.116;2023-02-28T15:59:27;1.80;;;1.70;;
29534;SDS011;16475;52.650;8.116;2023-02-28T16:04:34;1.30;;;1.30;;
29534;SDS011;16475;52.650;8.116;2023-02-28T16:07:01;2.17;;;1.87;;
29534;SDS011;16475;52.650;8.116;2023-02-28T16:09:30;2.60;;;2.40;;
29534;SDS011;16475;52.650;8.116;2023-02-28T16:11:56;3.77;;;2.30;;
29534;SDS011;16475;52.650;8.116;2023-02-28T16:14:26;1.40;;;1.40;;
29534;SDS011;16475;52.650;8.116;2023-02-28T16:16:55;12.87;;;1.83;;
29534;SDS011;16475;52.650;8.116;2023-02-28T16:19:22;1.50;;;1.50;;
29534;SDS011;16475;52.650;8.116;2023-02-28T16:21:48;1.83;;;1.73;;
29534;SDS011;16475;52.650;8.116;2023-02-28T16:24:14;1.97;;;1.87;;
29534;SDS011;16475;52.650;8.116;2023-02-28T16:26:44;2.83;;;1.67;;
29534;SDS011;16475;52.650;8.116;2023-02-28T16:29:33;1.50;;;1.40;;
29534;SDS011;16475;52.650;8.116;2023-02-28T16:31:57;2.00;;;1.80;;
29534;SDS011;16475;52.650;8.116;2023-02-28T16:34:24;1.53;;;1.53;;
29534;SDS011;16475;52.650;8.116;2023-02-28T16:36:49;2.40;;;1.60;;
29534;SDS011;16475;52.650;8.116;2023-02-28T16:39:15;1.87;;;1.77;;
29534;SDS011;16475;52.650;8.116;2023-02-28T16:41:44;2.13;;;2.00;;
29534;SDS011;16475;52.650;8.116;2023-02-28T16:44:11;52.20;;;3.27;;
29534;SDS011;16475;52.650;8.116;2023-02-28T16:46:39;3.77;;;2.00;;
29534;SDS011;16475;52.650;8.116;2023-02-28T16:49:04;2.60;;;2.20;;
29534;SDS011;16475;52.650;8.116;2023-02-28T16:51:35;2.80;;;2.30;;
29534;SDS011;16475;52.650;8.116;2023-02-28T16:54:00;3.17;;;1.60;;
29534;SDS011;16475;52.650;8.116;2023-02-28T16:56:26;1.77;;;1.67;;
29534;SDS011;16475;52.650;8.116;2023-02-28T16:58:51;5.10;;;1.87;;
29534;SDS011;16475;52.650;8.116;2023-02-28T17:01:20;2.23;;;1.57;;
29534;SDS011;16475;52.650;8.116;2023-02-28T17:03:46;2.10;;;2.00;;
29534;SDS011;16475;52.650;8.116;2023-02-28T17:06:17;1.90;;;1.80;;
29534;SDS011;16475;52.650;8.116;2023-02-28T17:08:44;3.57;;;1.83;;
29534;SDS011;16475;52.650;8.116;2023-02-28T17:11:10;5.20;;;3.60;;
29534;SDS011;16475;52.650;8.116;2023-02-28T17:13:35;1.80;;;1.80;;
29534;SDS011;16475;52.650;8.116;2023-02-28T17:16:00;3.33;;;2.93;;
29534;SDS011;16475;52.650;8.116;2023-02-28T17:18:26;3.80;;;3.40;;
29534;SDS011;16475;52.650;8.116;2023-02-28T17:20:53;5.07;;;4.23;;
29534;SDS011;16475;52.650;8.116;2023-02-28T17:23:19;13.30;;;6.30;;
29534;SDS011;16475;52.650;8.116;2023-02-28T17:25:44;12.13;;;8.97;;
29534;SDS011;16475;52.650;8.116;2023-02-28T17:28:18;9.23;;;7.30;;
29534;SDS011;16475;52.650;8.116;2023-02-28T17:30:43;13.47;;;8.70;;
29534;SDS011;16475;52.650;8.116;2023-02-28T17:33:11;14.33;;;7.20;;
29534;SDS011;16475;52.650;8.116;2023-02-28T17:35:37;9.37;;;7.70;;
29534;SDS011;16475;52.650;8.116;2023-02-28T17:38:02;8.90;;;6.10;;
29534;SDS011;16475;52.650;8.116;2023-02-28T17:40:28;10.23;;;6.20;;
29534;SDS011;16475;52.650;8.116;2023-02-28T17:42:53;5.47;;;5.00;;
29534;SDS011;16475;52.650;8.116;2023-02-28T17:45:20;5.60;;;5.10;;
29534;SDS011;16475;52.650;8.116;2023-02-28T17:47:46;7.03;;;4.50;;
29534;SDS011;16475;52.650;8.116;2023-02-28T17:50:14;4.90;;;4.40;;
29534;SDS011;16475;52.650;8.116;2023-02-28T17:52:41;9.60;;;5.20;;
29534;SDS011;16475;52.650;8.116;2023-02-28T17:55:06;10.13;;;6.47;;
29534;SDS011;16475;52.650;8.116;2023-02-28T17:57:32;19.00;;;8.37;;
29534;SDS011;16475;52.650;8.116;2023-02-28T17:59:57;9.23;;;4.80;;
29534;SDS011;16475;52.650;8.116;2023-02-28T18:02:22;10.53;;;6.57;;
29534;SDS011;16475;52.650;8.116;2023-02-28T18:04:47;14.97;;;6.57;;